createdAt,value
2017-09-21T00:00:12.047Z,0
2017-09-21T00:01:12.703Z,0
2017-09-21T00:02:12.403Z,0
2017-09-21T00:03:12.723Z,0
2017-09-21T00:04:12.752Z,0
2017-09-21T00:05:12.889Z,0
2017-09-21T00:06:12.477Z,0
2017-09-21T00:07:12.806Z,0
2017-09-21T00:08:13.142Z,0
2017-09-21T00:09:12.847Z,0
2017-09-21T00:10:12.560Z,0
2017-09-21T00:11:12.582Z,0
2017-09-21T00:12:13.224Z,0
2017-09-21T00:13:12.605Z,0
2017-09-21T00:14:12.607Z,0
2017-09-21T00:15:12.650Z,0
2017-09-21T00:16:12.669Z,0
2017-09-21T00:17:13.000Z,0
2017-09-21T00:18:13.012Z,0
2017-09-21T00:19:12.701Z,0
2017-09-21T00:20:13.370Z,0
2017-09-21T00:21:12.736Z,0
2017-09-21T00:22:12.449Z,0
2017-09-21T00:23:12.779Z,0
2017-09-21T00:24:13.118Z,0
2017-09-21T00:25:12.491Z,0
2017-09-21T00:26:13.499Z,0
2017-09-21T00:27:13.182Z,0
2017-09-21T00:28:12.874Z,0
2017-09-21T00:29:12.909Z,0
2017-09-21T00:30:12.926Z,0
2017-09-21T00:31:12.598Z,0
2017-09-21T00:32:12.963Z,0
2017-09-21T00:33:13.332Z,0
2017-09-21T00:34:13.305Z,0
2017-09-21T00:35:13.019Z,0
2017-09-21T00:36:13.681Z,0
2017-09-21T00:37:13.465Z,0
2017-09-21T00:38:12.725Z,0
2017-09-21T00:39:13.390Z,0
2017-09-21T00:40:13.776Z,0
2017-09-21T00:41:13.755Z,0
2017-09-21T00:42:13.130Z,0
2017-09-21T00:43:13.161Z,0
2017-09-21T00:44:13.529Z,0
2017-09-21T00:45:12.885Z,0
2017-09-21T00:46:13.524Z,0
2017-09-21T00:47:13.248Z,0
2017-09-21T00:48:12.922Z,0
2017-09-21T00:49:13.587Z,0
2017-09-21T00:50:12.997Z,0
2017-09-21T00:51:13.649Z,0
2017-09-21T00:52:13.435Z,0
2017-09-21T00:53:14.077Z,0
2017-09-21T00:54:13.762Z,0
2017-09-21T00:55:13.916Z,0
2017-09-21T00:56:13.577Z,0
2017-09-21T00:57:13.390Z,0
2017-09-21T00:58:13.730Z,0
2017-09-21T00:59:13.431Z,0
2017-09-21T01:00:13.445Z,0
2017-09-21T01:01:13.479Z,0
2017-09-21T01:02:13.513Z,0
2017-09-21T01:03:14.167Z,0
2017-09-21T01:04:13.531Z,0
2017-09-21T01:05:13.570Z,0
2017-09-21T01:06:13.571Z,0
2017-09-21T01:07:14.262Z,0
2017-09-21T01:08:13.305Z,0
2017-09-21T01:09:13.950Z,0
2017-09-21T01:10:13.642Z,0
2017-09-21T01:11:14.073Z,0
2017-09-21T01:12:14.333Z,0
2017-09-21T01:13:14.021Z,0
2017-09-21T01:14:13.739Z,0
2017-09-21T01:15:13.767Z,0
2017-09-21T01:16:14.423Z,0
2017-09-21T01:17:14.226Z,0
2017-09-21T01:18:13.820Z,0
2017-09-21T01:19:14.584Z,0
2017-09-21T01:20:13.505Z,0
2017-09-21T01:21:13.884Z,0
2017-09-21T01:22:13.887Z,0
2017-09-21T01:23:13.576Z,0
2017-09-21T01:24:14.232Z,0
2017-09-21T01:25:14.695Z,0
2017-09-21T01:26:14.279Z,0
2017-09-21T01:27:14.111Z,0
2017-09-21T01:28:14.429Z,0
2017-09-21T01:29:14.321Z,0
2017-09-21T01:30:14.029Z,0
2017-09-21T01:31:14.369Z,0
2017-09-21T01:32:14.049Z,0
2017-09-21T01:33:14.067Z,0
2017-09-21T01:34:13.790Z,0
2017-09-21T01:35:14.428Z,0
2017-09-21T01:36:14.204Z,0
2017-09-21T01:37:14.151Z,0
2017-09-21T01:38:13.880Z,0
2017-09-21T01:39:14.295Z,0
2017-09-21T01:40:14.200Z,0
2017-09-21T01:41:14.884Z,0
2017-09-21T01:42:14.879Z,0
2017-09-21T01:43:14.900Z,0
2017-09-21T01:44:14.701Z,0
2017-09-21T01:45:14.478Z,0
2017-09-21T01:46:14.798Z,0
2017-09-21T01:47:14.666Z,0
2017-09-21T01:48:14.684Z,0
2017-09-21T01:49:14.685Z,0
2017-09-21T01:50:14.401Z,0
2017-09-21T01:51:14.712Z,0
2017-09-21T01:52:14.090Z,0
2017-09-21T01:53:15.088Z,0
2017-09-21T01:54:15.107Z,0
2017-09-21T01:55:14.567Z,0
2017-09-21T01:56:14.810Z,0
2017-09-21T01:57:14.821Z,0
2017-09-21T01:58:14.854Z,0
2017-09-21T01:59:14.872Z,0
2017-09-21T02:00:14.948Z,0
2017-09-21T02:01:15.245Z,0
2017-09-21T02:02:15.247Z,0
2017-09-21T02:03:14.502Z,0
2017-09-21T02:04:14.949Z,0
2017-09-21T02:05:14.979Z,0
2017-09-21T02:06:14.672Z,0
2017-09-21T02:07:14.671Z,0
2017-09-21T02:08:14.693Z,0
2017-09-21T02:09:15.035Z,0
2017-09-21T02:10:15.056Z,0
2017-09-21T02:11:15.072Z,0
2017-09-21T02:12:14.561Z,0
2017-09-21T02:13:14.794Z,0
2017-09-21T02:14:15.127Z,0
2017-09-21T02:15:14.818Z,0
2017-09-21T02:16:15.173Z,0
2017-09-21T02:17:14.861Z,0
2017-09-21T02:18:15.205Z,0
2017-09-21T02:19:14.897Z,0
2017-09-21T02:20:15.286Z,0
2017-09-21T02:21:14.949Z,0
2017-09-21T02:22:15.270Z,0
2017-09-21T02:23:15.611Z,0
2017-09-21T02:24:14.981Z,0
2017-09-21T02:25:15.026Z,0
2017-09-21T02:26:15.046Z,0
2017-09-21T02:27:15.175Z,0
2017-09-21T02:28:15.710Z,0
2017-09-21T02:29:15.179Z,0
2017-09-21T02:30:15.115Z,0
2017-09-21T02:31:15.448Z,0
2017-09-21T02:32:15.780Z,0
2017-09-21T02:33:15.494Z,0
2017-09-21T02:34:15.195Z,0
2017-09-21T02:35:15.190Z,0
2017-09-21T02:36:15.867Z,0
2017-09-21T02:37:15.225Z,0
2017-09-21T02:38:14.939Z,0
2017-09-21T02:39:15.588Z,0
2017-09-21T02:40:15.370Z,0
2017-09-21T02:41:15.627Z,0
2017-09-21T02:42:15.966Z,0
2017-09-21T02:43:15.796Z,0
2017-09-21T02:44:15.426Z,0
2017-09-21T02:45:16.030Z,0
2017-09-21T02:46:15.711Z,0
2017-09-21T02:47:16.173Z,0
2017-09-21T02:48:15.434Z,0
2017-09-21T02:49:15.898Z,0
2017-09-21T02:50:15.783Z,0
2017-09-21T02:51:16.131Z,0
2017-09-21T02:52:15.837Z,0
2017-09-21T02:53:16.163Z,0
2017-09-21T02:54:15.881Z,0
2017-09-21T02:55:16.210Z,0
2017-09-21T02:56:15.250Z,0
2017-09-21T02:57:15.754Z,0
2017-09-21T02:58:15.429Z,0
2017-09-21T02:59:15.646Z,0
2017-09-21T03:00:15.436Z,0
2017-09-21T03:01:15.666Z,0
2017-09-21T03:02:15.678Z,0
2017-09-21T03:03:16.024Z,0
2017-09-21T03:04:15.766Z,0
2017-09-21T03:05:16.080Z,0
2017-09-21T03:06:15.754Z,0
2017-09-21T03:07:15.506Z,0
2017-09-21T03:08:15.798Z,0
2017-09-21T03:09:15.492Z,0
2017-09-21T03:10:15.826Z,0
2017-09-21T03:11:15.870Z,0
2017-09-21T03:12:16.190Z,0
2017-09-21T03:13:15.887Z,0
2017-09-21T03:14:15.899Z,0
2017-09-21T03:15:16.256Z,0
2017-09-21T03:16:16.577Z,0
2017-09-21T03:17:15.953Z,0
2017-09-21T03:18:16.292Z,0
2017-09-21T03:19:15.989Z,0
2017-09-21T03:20:16.331Z,0
2017-09-21T03:21:16.030Z,0
2017-09-21T03:22:16.716Z,0
2017-09-21T03:23:16.080Z,0
2017-09-21T03:24:16.422Z,0
2017-09-21T03:25:15.788Z,0
2017-09-21T03:26:16.445Z,0
2017-09-21T03:27:16.466Z,0
2017-09-21T03:28:16.480Z,0
2017-09-21T03:29:16.493Z,0
2017-09-21T03:30:16.522Z,0
2017-09-21T03:31:16.858Z,0
2017-09-21T03:32:15.920Z,0
2017-09-21T03:33:16.269Z,0
2017-09-21T03:34:16.595Z,0
2017-09-21T03:35:16.299Z,0
2017-09-21T03:36:16.945Z,0
2017-09-21T03:37:16.636Z,0
2017-09-21T03:38:16.033Z,0
2017-09-21T03:39:16.374Z,0
2017-09-21T03:40:17.024Z,0
2017-09-21T03:41:16.397Z,0
2017-09-21T03:42:16.736Z,0
2017-09-21T03:43:16.763Z,0
2017-09-21T03:44:16.782Z,0
2017-09-21T03:45:16.144Z,0
2017-09-21T03:46:17.036Z,0
2017-09-21T03:47:16.728Z,0
2017-09-21T03:48:16.533Z,0
2017-09-21T03:49:16.243Z,0
2017-09-21T03:50:16.585Z,0
2017-09-21T03:51:17.336Z,0
2017-09-21T03:52:17.041Z,0
2017-09-21T03:53:16.628Z,0
2017-09-21T03:54:17.001Z,0
2017-09-21T03:55:16.646Z,0
2017-09-21T03:56:17.004Z,0
2017-09-21T03:57:17.000Z,0
2017-09-21T03:58:16.697Z,0
2017-09-21T03:59:17.367Z,0
2017-09-21T04:00:16.778Z,0
2017-09-21T04:01:16.461Z,0
2017-09-21T04:02:16.811Z,0
2017-09-21T04:03:17.223Z,0
2017-09-21T04:04:17.458Z,0
2017-09-21T04:05:16.830Z,0
2017-09-21T04:06:17.527Z,0
2017-09-21T04:07:17.192Z,0
2017-09-21T04:08:17.210Z,0
2017-09-21T04:09:16.919Z,0
2017-09-21T04:10:17.613Z,0
2017-09-21T04:11:16.941Z,0
2017-09-21T04:12:17.413Z,0
2017-09-21T04:13:16.975Z,0
2017-09-21T04:14:17.023Z,0
2017-09-21T04:15:17.334Z,0
2017-09-21T04:16:17.062Z,0
2017-09-21T04:17:17.408Z,0
2017-09-21T04:18:17.072Z,0
2017-09-21T04:19:17.403Z,0
2017-09-21T04:20:17.428Z,0
2017-09-21T04:21:17.132Z,0
2017-09-21T04:22:16.838Z,0
2017-09-21T04:23:17.156Z,0
2017-09-21T04:24:17.182Z,0
2017-09-21T04:25:17.851Z,0
2017-09-21T04:26:17.546Z,0
2017-09-21T04:27:17.254Z,0
2017-09-21T04:28:17.642Z,0
2017-09-21T04:29:17.592Z,0
2017-09-21T04:30:17.648Z,0
2017-09-21T04:31:17.617Z,0
2017-09-21T04:32:17.639Z,0
2017-09-21T04:33:17.991Z,0
2017-09-21T04:34:17.351Z,0
2017-09-21T04:35:18.022Z,0
2017-09-21T04:36:17.069Z,0
2017-09-21T04:37:17.410Z,0
2017-09-21T04:38:17.786Z,0
2017-09-21T04:39:18.088Z,4
2017-09-21T04:40:17.476Z,4
2017-09-21T04:41:17.517Z,0
2017-09-21T04:42:17.508Z,4
2017-09-21T04:43:18.164Z,4
2017-09-21T04:44:18.179Z,4
2017-09-21T04:45:17.567Z,4
2017-09-21T04:46:17.890Z,4
2017-09-21T04:47:18.243Z,8
2017-09-21T04:48:17.615Z,8
2017-09-21T04:49:18.304Z,8
2017-09-21T04:50:17.986Z,12
2017-09-21T04:51:17.681Z,12
2017-09-21T04:52:18.325Z,16
2017-09-21T04:53:18.345Z,16
2017-09-21T04:54:18.166Z,20
2017-09-21T04:55:17.734Z,20
2017-09-21T04:56:18.077Z,24
2017-09-21T04:57:18.096Z,24
2017-09-21T04:58:18.484Z,24
2017-09-21T04:59:18.489Z,28
2017-09-21T05:00:17.506Z,28
2017-09-21T05:01:18.488Z,36
2017-09-21T05:02:18.501Z,36
2017-09-21T05:03:18.195Z,40
2017-09-21T05:04:18.229Z,40
2017-09-21T05:05:18.238Z,44
2017-09-21T05:06:18.263Z,44
2017-09-21T05:07:18.280Z,48
2017-09-21T05:08:17.971Z,56
2017-09-21T05:09:18.306Z,56
2017-09-21T05:10:18.008Z,64
2017-09-21T05:11:18.026Z,68
2017-09-21T05:12:18.387Z,72
2017-09-21T05:13:18.058Z,72
2017-09-21T05:14:18.076Z,80
2017-09-21T05:15:18.856Z,80
2017-09-21T05:16:18.443Z,84
2017-09-21T05:17:18.126Z,88
2017-09-21T05:18:18.855Z,88
2017-09-21T05:19:18.168Z,96
2017-09-21T05:20:18.195Z,104
2017-09-21T05:21:18.526Z,104
2017-09-21T05:22:17.907Z,112
2017-09-21T05:23:18.990Z,120
2017-09-21T05:24:18.265Z,128
2017-09-21T05:25:18.601Z,132
2017-09-21T05:26:18.351Z,136
2017-09-21T05:27:18.313Z,136
2017-09-21T05:28:18.654Z,140
2017-09-21T05:29:18.676Z,144
2017-09-21T05:30:18.689Z,152
2017-09-21T05:31:18.712Z,156
2017-09-21T05:32:18.083Z,164
2017-09-21T05:33:18.821Z,172
2017-09-21T05:34:18.444Z,176
2017-09-21T05:35:19.141Z,180
2017-09-21T05:36:18.476Z,192
2017-09-21T05:37:18.495Z,200
2017-09-21T05:38:18.510Z,208
2017-09-21T05:39:19.196Z,212
2017-09-21T05:40:18.915Z,216
2017-09-21T05:41:19.228Z,224
2017-09-21T05:42:19.238Z,232
2017-09-21T05:43:18.607Z,244
2017-09-21T05:44:19.260Z,252
2017-09-21T05:45:19.281Z,264
2017-09-21T05:46:19.300Z,272
2017-09-21T05:47:18.680Z,280
2017-09-21T05:48:19.341Z,284
2017-09-21T05:49:18.815Z,284
2017-09-21T05:50:18.823Z,292
2017-09-21T05:51:19.146Z,296
2017-09-21T05:52:18.849Z,304
2017-09-21T05:53:18.864Z,316
2017-09-21T05:54:19.168Z,324
2017-09-21T05:55:18.502Z,328
2017-09-21T05:56:19.044Z,332
2017-09-21T05:57:19.251Z,336
2017-09-21T05:58:18.967Z,348
2017-09-21T05:59:19.216Z,356
2017-09-21T06:00:18.979Z,360
2017-09-21T06:01:19.255Z,372
2017-09-21T06:02:18.996Z,380
2017-09-21T06:03:19.661Z,392
2017-09-21T06:04:19.025Z,396
2017-09-21T06:05:19.324Z,396
2017-09-21T06:06:19.338Z,400
2017-09-21T06:07:19.042Z,404
2017-09-21T06:08:19.080Z,408
2017-09-21T06:09:19.089Z,420
2017-09-21T06:10:19.736Z,432
2017-09-21T06:11:19.437Z,444
2017-09-21T06:12:19.815Z,444
2017-09-21T06:13:18.843Z,444
2017-09-21T06:14:19.487Z,448
2017-09-21T06:15:19.505Z,448
2017-09-21T06:16:19.530Z,444
2017-09-21T06:17:19.543Z,436
2017-09-21T06:18:19.564Z,432
2017-09-21T06:19:19.908Z,444
2017-09-21T06:20:19.277Z,464
2017-09-21T06:21:19.609Z,476
2017-09-21T06:22:19.639Z,480
2017-09-21T06:23:19.660Z,480
2017-09-21T06:24:19.347Z,484
2017-09-21T06:25:19.685Z,492
2017-09-21T06:26:20.035Z,504
2017-09-21T06:27:19.725Z,520
2017-09-21T06:28:19.743Z,532
2017-09-21T06:29:19.758Z,544
2017-09-21T06:30:19.774Z,556
2017-09-21T06:31:19.484Z,580
2017-09-21T06:32:19.830Z,580
2017-09-21T06:33:19.868Z,588
2017-09-21T06:34:19.851Z,616
2017-09-21T06:35:19.547Z,612
2017-09-21T06:36:19.890Z,636
2017-09-21T06:37:19.901Z,660
2017-09-21T06:38:19.926Z,664
2017-09-21T06:39:20.026Z,660
2017-09-21T06:40:19.312Z,660
2017-09-21T06:41:20.080Z,672
2017-09-21T06:42:20.062Z,688
2017-09-21T06:43:20.348Z,704
2017-09-21T06:44:19.800Z,696
2017-09-21T06:45:20.387Z,692
2017-09-21T06:46:20.068Z,696
2017-09-21T06:47:20.125Z,704
2017-09-21T06:48:20.431Z,728
2017-09-21T06:49:20.122Z,756
2017-09-21T06:50:20.138Z,784
2017-09-21T06:51:20.165Z,808
2017-09-21T06:52:19.957Z,832
2017-09-21T06:53:20.201Z,836
2017-09-21T06:54:20.224Z,844
2017-09-21T06:55:20.254Z,836
2017-09-21T06:56:20.016Z,824
2017-09-21T06:57:20.271Z,820
2017-09-21T06:58:20.059Z,820
2017-09-21T06:59:19.768Z,816
2017-09-21T07:00:20.121Z,812
2017-09-21T07:01:20.346Z,808
2017-09-21T07:02:20.360Z,812
2017-09-21T07:03:20.385Z,808
2017-09-21T07:04:19.867Z,812
2017-09-21T07:05:20.100Z,820
2017-09-21T07:06:20.121Z,824
2017-09-21T07:07:20.463Z,828
2017-09-21T07:08:20.479Z,836
2017-09-21T07:09:20.173Z,872
2017-09-21T07:10:20.517Z,912
2017-09-21T07:11:20.844Z,936
2017-09-21T07:12:20.230Z,932
2017-09-21T07:13:20.243Z,916
2017-09-21T07:14:20.258Z,888
2017-09-21T07:15:20.601Z,880
2017-09-21T07:16:20.636Z,908
2017-09-21T07:17:20.644Z,948
2017-09-21T07:18:20.983Z,1004
2017-09-21T07:19:20.354Z,1032
2017-09-21T07:20:21.023Z,1032
2017-09-21T07:21:21.036Z,1028
2017-09-21T07:22:20.418Z,1020
2017-09-21T07:23:21.087Z,1024
2017-09-21T07:24:20.452Z,1060
2017-09-21T07:25:20.471Z,1096
2017-09-21T07:26:20.485Z,1132
2017-09-21T07:27:20.498Z,1168
2017-09-21T07:28:20.529Z,1176
2017-09-21T07:29:21.193Z,1164
2017-09-21T07:30:20.574Z,1112
2017-09-21T07:31:20.905Z,1008
2017-09-21T07:32:20.920Z,916
2017-09-21T07:33:20.616Z,900
2017-09-21T07:34:21.286Z,952
2017-09-21T07:35:20.329Z,976
2017-09-21T07:36:20.350Z,976
2017-09-21T07:37:21.019Z,1004
2017-09-21T07:38:21.064Z,1052
2017-09-21T07:39:20.735Z,1080
2017-09-21T07:40:21.391Z,1140
2017-09-21T07:41:21.420Z,1236
2017-09-21T07:42:21.104Z,1276
2017-09-21T07:43:20.797Z,1260
2017-09-21T07:44:20.816Z,1244
2017-09-21T07:45:20.847Z,1280
2017-09-21T07:46:21.178Z,1312
2017-09-21T07:47:21.200Z,1308
2017-09-21T07:48:21.533Z,1288
2017-09-21T07:49:20.910Z,1288
2017-09-21T07:50:21.258Z,1320
2017-09-21T07:51:21.594Z,1352
2017-09-21T07:52:21.302Z,1364
2017-09-21T07:53:21.312Z,1388
2017-09-21T07:54:20.689Z,1388
2017-09-21T07:55:21.362Z,1396
2017-09-21T07:56:21.047Z,1420
2017-09-21T07:57:21.435Z,1460
2017-09-21T07:58:21.078Z,1476
2017-09-21T07:59:21.424Z,1464
2017-09-21T08:00:21.456Z,1476
2017-09-21T08:01:21.139Z,1504
2017-09-21T08:02:21.808Z,1520
2017-09-21T08:03:21.975Z,1536
2017-09-21T08:04:20.871Z,1536
2017-09-21T08:05:21.554Z,1536
2017-09-21T08:06:21.229Z,1548
2017-09-21T08:07:20.934Z,1580
2017-09-21T08:08:21.727Z,1604
2017-09-21T08:09:21.293Z,1588
2017-09-21T08:10:21.727Z,1580
2017-09-21T08:11:21.009Z,1596
2017-09-21T08:12:21.074Z,1604
2017-09-21T08:13:22.013Z,1596
2017-09-21T08:14:21.718Z,1608
2017-09-21T08:15:21.726Z,1624
2017-09-21T08:16:21.757Z,1620
2017-09-21T08:17:22.096Z,1624
2017-09-21T08:18:21.487Z,1620
2017-09-21T08:19:21.838Z,1600
2017-09-21T08:20:21.822Z,1592
2017-09-21T08:21:22.170Z,1616
2017-09-21T08:22:21.859Z,1648
2017-09-21T08:23:21.890Z,1676
2017-09-21T08:24:21.574Z,1728
2017-09-21T08:25:21.923Z,1764
2017-09-21T08:26:21.614Z,1780
2017-09-21T08:27:21.675Z,1796
2017-09-21T08:28:21.655Z,1800
2017-09-21T08:29:21.673Z,1812
2017-09-21T08:30:22.342Z,1832
2017-09-21T08:31:21.714Z,1864
2017-09-21T08:32:21.731Z,1884
2017-09-21T08:33:21.764Z,1888
2017-09-21T08:34:22.416Z,1876
2017-09-21T08:35:21.792Z,1848
2017-09-21T08:36:21.811Z,1820
2017-09-21T08:37:22.153Z,1804
2017-09-21T08:38:22.168Z,1780
2017-09-21T08:39:22.196Z,1768
2017-09-21T08:40:21.917Z,1776
2017-09-21T08:41:22.676Z,1812
2017-09-21T08:42:22.256Z,1836
2017-09-21T08:43:22.270Z,1840
2017-09-21T08:44:21.973Z,1824
2017-09-21T08:45:22.311Z,1808
2017-09-21T08:46:22.744Z,1804
2017-09-21T08:47:22.756Z,1832
2017-09-21T08:48:22.367Z,1876
2017-09-21T08:49:22.065Z,1920
2017-09-21T08:50:22.082Z,1948
2017-09-21T08:51:22.425Z,1928
2017-09-21T08:52:22.864Z,1884
2017-09-21T08:53:21.820Z,1836
2017-09-21T08:54:22.846Z,1820
2017-09-21T08:55:22.499Z,1864
2017-09-21T08:56:22.524Z,1920
2017-09-21T08:57:22.657Z,1948
2017-09-21T08:58:22.252Z,1936
2017-09-21T08:59:22.262Z,1904
2017-09-21T09:00:22.285Z,1848
2017-09-21T09:01:23.038Z,1756
2017-09-21T09:02:22.892Z,1660
2017-09-21T09:03:22.673Z,1560
2017-09-21T09:04:22.807Z,1448
2017-09-21T09:05:22.819Z,1352
2017-09-21T09:06:23.243Z,1304
2017-09-21T09:07:22.835Z,1284
2017-09-21T09:08:23.297Z,1260
2017-09-21T09:09:22.459Z,1224
2017-09-21T09:10:22.481Z,1212
2017-09-21T09:11:22.175Z,1224
2017-09-21T09:12:22.194Z,1252
2017-09-21T09:13:23.014Z,1244
2017-09-21T09:14:23.030Z,1240
2017-09-21T09:15:22.670Z,1324
2017-09-21T09:16:23.150Z,1428
2017-09-21T09:17:23.104Z,1608
2017-09-21T09:18:22.797Z,1668
2017-09-21T09:19:23.008Z,1596
2017-09-21T09:20:23.015Z,1588
2017-09-21T09:21:23.026Z,1764
2017-09-21T09:22:22.405Z,1904
2017-09-21T09:23:23.158Z,1980
2017-09-21T09:24:23.005Z,1884
2017-09-21T09:25:23.298Z,1640
2017-09-21T09:26:23.441Z,1540
2017-09-21T09:27:22.988Z,1536
2017-09-21T09:28:23.166Z,1508
2017-09-21T09:29:23.180Z,1584
2017-09-21T09:30:22.950Z,1624
2017-09-21T09:31:22.991Z,1572
2017-09-21T09:32:22.781Z,1484
2017-09-21T09:33:23.311Z,1396
2017-09-21T09:34:23.006Z,1328
2017-09-21T09:35:23.368Z,1248
2017-09-21T09:36:23.163Z,1224
2017-09-21T09:37:23.347Z,1320
2017-09-21T09:38:23.039Z,1468
2017-09-21T09:39:23.707Z,1556
2017-09-21T09:40:23.723Z,1728
2017-09-21T09:41:23.285Z,1788
2017-09-21T09:42:23.123Z,1752
2017-09-21T09:43:23.337Z,1564
2017-09-21T09:44:23.304Z,1556
2017-09-21T09:45:23.259Z,1648
2017-09-21T09:46:23.208Z,1736
2017-09-21T09:47:23.901Z,1824
2017-09-21T09:48:23.023Z,1884
2017-09-21T09:49:23.272Z,1924
2017-09-21T09:50:23.315Z,1920
2017-09-21T09:51:23.326Z,1900
2017-09-21T09:52:23.330Z,1860
2017-09-21T09:53:23.353Z,1776
2017-09-21T09:54:23.690Z,1868
2017-09-21T09:55:23.719Z,1944
2017-09-21T09:56:23.733Z,1812
2017-09-21T09:57:24.077Z,1884
2017-09-21T09:58:23.450Z,1972
2017-09-21T09:59:23.471Z,1924
2017-09-21T10:00:23.494Z,1952
2017-09-21T10:01:23.190Z,1888
2017-09-21T10:02:23.538Z,1784
2017-09-21T10:03:23.890Z,1688
2017-09-21T10:04:23.919Z,1528
2017-09-21T10:05:23.926Z,1272
2017-09-21T10:06:23.635Z,1156
2017-09-21T10:07:23.317Z,1256
2017-09-21T10:08:23.656Z,1372
2017-09-21T10:09:23.359Z,1616
2017-09-21T10:10:23.704Z,1932
2017-09-21T10:11:24.361Z,1940
2017-09-21T10:12:24.495Z,1784
2017-09-21T10:13:24.089Z,1496
2017-09-21T10:14:24.521Z,1240
2017-09-21T10:15:24.125Z,1100
2017-09-21T10:16:24.466Z,1192
2017-09-21T10:17:24.527Z,1356
2017-09-21T10:18:23.873Z,1300
2017-09-21T10:19:24.539Z,1384
2017-09-21T10:20:24.624Z,1336
2017-09-21T10:21:23.940Z,1204
2017-09-21T10:22:24.591Z,1204
2017-09-21T10:23:24.293Z,1092
2017-09-21T10:24:24.651Z,1180
2017-09-21T10:25:24.012Z,1256
2017-09-21T10:26:23.721Z,1548
2017-09-21T10:27:24.761Z,1688
2017-09-21T10:28:24.400Z,1496
2017-09-21T10:29:24.100Z,1320
2017-09-21T10:30:24.771Z,1204
2017-09-21T10:31:24.140Z,1124
2017-09-21T10:32:24.483Z,1064
2017-09-21T10:33:24.188Z,1076
2017-09-21T10:34:24.207Z,1100
2017-09-21T10:35:24.867Z,1112
2017-09-21T10:36:23.929Z,1108
2017-09-21T10:37:24.265Z,1092
2017-09-21T10:38:24.718Z,1100
2017-09-21T10:39:25.140Z,1124
2017-09-21T10:40:24.682Z,1152
2017-09-21T10:41:25.097Z,1176
2017-09-21T10:42:24.786Z,1220
2017-09-21T10:43:24.836Z,1256
2017-09-21T10:44:24.808Z,1284
2017-09-21T10:45:24.846Z,1260
2017-09-21T10:46:24.545Z,1260
2017-09-21T10:47:25.155Z,1260
2017-09-21T10:48:24.181Z,1272
2017-09-21T10:49:24.204Z,1240
2017-09-21T10:50:24.642Z,1236
2017-09-21T10:51:24.983Z,1276
2017-09-21T10:52:24.588Z,1396
2017-09-21T10:53:24.610Z,1516
2017-09-21T10:54:24.968Z,1656
2017-09-21T10:55:24.663Z,1888
2017-09-21T10:56:25.001Z,2156
2017-09-21T10:57:24.382Z,2212
2017-09-21T10:58:25.044Z,2264
2017-09-21T10:59:24.750Z,2184
2017-09-21T11:00:25.077Z,2156
2017-09-21T11:01:25.102Z,2088
2017-09-21T11:02:24.805Z,1676
2017-09-21T11:03:24.832Z,1408
2017-09-21T11:04:24.536Z,1336
2017-09-21T11:05:25.514Z,1464
2017-09-21T11:06:24.901Z,1448
2017-09-21T11:07:24.595Z,1568
2017-09-21T11:08:25.288Z,1596
2017-09-21T11:09:25.698Z,1628
2017-09-21T11:10:24.986Z,1644
2017-09-21T11:11:25.446Z,1956
2017-09-21T11:12:25.382Z,2220
2017-09-21T11:13:24.815Z,2020
2017-09-21T11:14:25.394Z,2156
2017-09-21T11:15:25.100Z,2580
2017-09-21T11:16:25.111Z,2328
2017-09-21T11:17:24.819Z,1908
2017-09-21T11:18:24.837Z,1524
2017-09-21T11:19:25.181Z,1148
2017-09-21T11:20:25.531Z,1056
2017-09-21T11:21:25.225Z,1036
2017-09-21T11:22:25.256Z,988
2017-09-21T11:23:24.956Z,920
2017-09-21T11:24:25.619Z,896
2017-09-21T11:25:25.647Z,908
2017-09-21T11:26:26.137Z,924
2017-09-21T11:27:25.360Z,936
2017-09-21T11:28:25.706Z,1276
2017-09-21T11:29:26.059Z,1400
2017-09-21T11:30:26.076Z,1532
2017-09-21T11:31:25.770Z,1788
2017-09-21T11:32:25.793Z,2068
2017-09-21T11:33:25.822Z,1980
2017-09-21T11:34:25.840Z,1864
2017-09-21T11:35:26.181Z,1752
2017-09-21T11:36:26.208Z,1676
2017-09-21T11:37:25.671Z,1476
2017-09-21T11:38:25.284Z,1448
2017-09-21T11:39:25.630Z,1468
2017-09-21T11:40:25.977Z,1588
2017-09-21T11:41:25.668Z,1832
2017-09-21T11:42:26.336Z,1948
2017-09-21T11:43:26.039Z,1968
2017-09-21T11:44:25.739Z,2152
2017-09-21T11:45:26.087Z,2252
2017-09-21T11:46:26.102Z,2316
2017-09-21T11:47:25.491Z,2448
2017-09-21T11:48:25.836Z,2580
2017-09-21T11:49:26.017Z,2596
2017-09-21T11:50:26.209Z,2540
2017-09-21T11:51:25.902Z,2568
2017-09-21T11:52:26.252Z,2456
2017-09-21T11:53:26.268Z,2436
2017-09-21T11:54:26.292Z,2312
2017-09-21T11:55:25.988Z,1980
2017-09-21T11:56:25.703Z,1660
2017-09-21T11:57:26.361Z,1320
2017-09-21T11:58:26.464Z,1152
2017-09-21T11:59:26.919Z,1112
2017-09-21T12:00:26.917Z,1064
2017-09-21T12:01:26.140Z,1032
2017-09-21T12:02:26.162Z,1056
2017-09-21T12:03:26.185Z,1148
2017-09-21T12:04:26.630Z,1352
2017-09-21T12:05:27.059Z,1420
2017-09-21T12:06:26.574Z,1504
2017-09-21T12:07:26.599Z,1332
2017-09-21T12:08:26.949Z,1348
2017-09-21T12:09:26.839Z,1576
2017-09-21T12:10:26.503Z,1596
2017-09-21T12:11:26.849Z,1628
2017-09-21T12:12:26.495Z,1804
2017-09-21T12:13:26.815Z,2072
2017-09-21T12:14:26.796Z,2304
2017-09-21T12:15:26.877Z,2396
2017-09-21T12:16:26.656Z,2432
2017-09-21T12:17:26.604Z,2524
2017-09-21T12:18:26.856Z,2652
2017-09-21T12:19:27.003Z,2712
2017-09-21T12:20:26.575Z,2492
2017-09-21T12:21:26.601Z,2316
2017-09-21T12:22:27.168Z,2268
2017-09-21T12:23:26.772Z,2344
2017-09-21T12:24:27.799Z,2356
2017-09-21T12:25:27.022Z,2404
2017-09-21T12:26:27.053Z,2472
2017-09-21T12:27:27.392Z,2556
2017-09-21T12:28:27.095Z,2580
2017-09-21T12:29:26.670Z,2716
2017-09-21T12:30:27.133Z,2824
2017-09-21T12:31:27.520Z,2808
2017-09-21T12:32:27.212Z,2796
2017-09-21T12:33:27.529Z,2576
2017-09-21T12:34:27.238Z,2120
2017-09-21T12:35:26.610Z,2116
2017-09-21T12:36:27.189Z,2352
2017-09-21T12:37:27.098Z,2676
2017-09-21T12:38:27.652Z,2884
2017-09-21T12:39:27.348Z,2948
2017-09-21T12:40:27.278Z,2996
2017-09-21T12:41:26.884Z,3000
2017-09-21T12:42:27.744Z,3012
2017-09-21T12:43:27.645Z,2972
2017-09-21T12:44:27.650Z,2984
2017-09-21T12:45:27.383Z,3044
2017-09-21T12:46:27.637Z,3332
2017-09-21T12:47:27.634Z,3432
2017-09-21T12:48:27.956Z,3144
2017-09-21T12:49:27.681Z,2944
2017-09-21T12:50:28.018Z,2964
2017-09-21T12:51:27.710Z,3052
2017-09-21T12:52:27.902Z,3116
2017-09-21T12:53:27.454Z,3124
2017-09-21T12:54:27.804Z,3044
2017-09-21T12:55:27.093Z,2932
2017-09-21T12:56:28.091Z,2868
2017-09-21T12:57:27.788Z,2912
2017-09-21T12:58:27.526Z,3016
2017-09-21T12:59:27.221Z,3060
2017-09-21T13:00:27.869Z,3128
2017-09-21T13:01:27.593Z,3140
2017-09-21T13:02:27.918Z,3228
2017-09-21T13:03:27.928Z,3528
2017-09-21T13:04:27.960Z,3600
2017-09-21T13:05:27.756Z,3384
2017-09-21T13:06:27.698Z,2896
2017-09-21T13:07:27.709Z,2864
2017-09-21T13:08:28.378Z,2864
2017-09-21T13:09:28.079Z,2648
2017-09-21T13:10:27.781Z,2656
2017-09-21T13:11:28.129Z,2620
2017-09-21T13:12:28.266Z,2496
2017-09-21T13:13:28.495Z,2484
2017-09-21T13:14:28.523Z,2684
2017-09-21T13:15:28.562Z,2660
2017-09-21T13:16:28.588Z,2760
2017-09-21T13:17:28.617Z,2908
2017-09-21T13:18:28.632Z,2956
2017-09-21T13:19:28.330Z,2924
2017-09-21T13:20:28.353Z,2724
2017-09-21T13:21:28.054Z,2504
2017-09-21T13:22:28.747Z,2348
2017-09-21T13:23:28.102Z,2100
2017-09-21T13:24:28.129Z,1856
2017-09-21T13:25:28.362Z,1756
2017-09-21T13:26:28.550Z,1760
2017-09-21T13:27:28.526Z,1764
2017-09-21T13:28:28.577Z,1796
2017-09-21T13:29:28.909Z,1784
2017-09-21T13:30:28.601Z,1740
2017-09-21T13:31:28.690Z,1796
2017-09-21T13:32:28.978Z,1868
2017-09-21T13:33:28.355Z,1928
2017-09-21T13:34:28.724Z,1996
2017-09-21T13:35:29.046Z,2000
2017-09-21T13:36:28.433Z,1928
2017-09-21T13:37:28.507Z,1988
2017-09-21T13:38:28.808Z,2052
2017-09-21T13:39:28.504Z,2168
2017-09-21T13:40:28.556Z,2224
2017-09-21T13:41:28.560Z,2264
2017-09-21T13:42:28.613Z,2268
2017-09-21T13:43:28.940Z,2280
2017-09-21T13:44:28.946Z,2292
2017-09-21T13:45:28.982Z,2308
2017-09-21T13:46:29.322Z,2356
2017-09-21T13:47:28.741Z,2292
2017-09-21T13:48:28.955Z,2132
2017-09-21T13:49:29.073Z,1960
2017-09-21T13:50:29.116Z,1796
2017-09-21T13:51:28.817Z,1680
2017-09-21T13:52:29.164Z,1564
2017-09-21T13:53:28.862Z,1552